Cathlamet — WYR7641 — position and weather

sailwx.info

Track history (hours):
 
Tides and Currents Weather Stations Pressure Air Temp Water Temp Dewpoint Dewpoint Depression Visibility Wind Speed Wind Dir Waves Ship Positions

Cathlamet

Owner: WASHINGTON, STATE OF; Dept. of Transportation, OLYMPIA, WA. More information available from US FCC via Universal Licensing System and Coast Guard Vessel Documentation Center.

Last reported at 2018-Jan-20 21:00 UTC. Time now 2018-Jan-20 21:18 UTC.
Position N 47°31' W 122°30'.

Length 100 m; draft 4.7 m.

Type: Passenger vessel. MMSI: 366773070.

Date/timePositionNaut miles runAvg speedWind from/ knotsBaromVisibWave heightAir tempDewpointWater temp
2018-Jan-20 21:00N 47°31' W 122°30'2 3.4
2018-Jan-20 20:30N 47°31' W 122°27'2 3.5
2018-Jan-20 20:00N 47°31' W 122°25'2 3.2
2018-Jan-20 19:30N 47°31' W 122°27'2 3.2
2018-Jan-20 19:00N 47°31' W 122°25'1 1.1
2018-Jan-20 18:30N 47°31' W 122°25'1 2.4
2018-Jan-20 18:00N 47°31' W 122°27'2 4.3
2018-Jan-20 17:30N 47°31' W 122°24'3 5.6
2018-Jan-20 17:00N 47°31' W 122°28'1 2.7
2018-Jan-20 16:30N 47°31' W 122°30'2 3.6
2018-Jan-20 16:00N 47°31' W 122°27'2 3.0
2018-Jan-20 15:31N 47°31' W 122°25'3 6.3
2018-Jan-20 14:59N 47°31' W 122°30'1 2.8
2018-Jan-20 14:31N 47°31' W 122°28'0 0.0
2018-Jan-20 14:01N 47°31' W 122°28'0 0.0
2018-Jan-20 13:31N 47°31' W 122°28'0 0.0
2018-Jan-20 13:00N 47°31' W 122°28'0 0.0
2018-Jan-20 12:30N 47°31' W 122°28'0 0.0
2018-Jan-20 12:00N 47°31' W 122°28'0 0.0
2018-Jan-20 11:31N 47°31' W 122°28'0 0.0
2018-Jan-20 11:01N 47°31' W 122°28'0 0.0
2018-Jan-20 10:31N 47°31' W 122°28'0 0.0
2018-Jan-20 10:01N 47°31' W 122°28'0 0.0
2018-Jan-20 09:31N 47°31' W 122°28'0 0.0
2018-Jan-20 09:01N 47°31' W 122°28'0 0.0
2018-Jan-20 08:31N 47°31' W 122°28'0 0.0
2018-Jan-20 08:00N 47°31' W 122°28'0 0.0
2018-Jan-20 07:30N 47°31' W 122°28'0 0.0
2018-Jan-20 07:01N 47°31' W 122°28'0 0.0
2018-Jan-20 06:31N 47°31' W 122°28'0 0.0
2018-Jan-20 06:01N 47°31' W 122°28'1 2.6
2018-Jan-20 05:30N 47°31' W 122°26'1 2.5
2018-Jan-20 05:01N 47°31' W 122°24'3 6.4
2018-Jan-20 04:30N 47°31' W 122°29'1 1.5
2018-Jan-20 04:01N 47°31' W 122°28'3 5.8
2018-Jan-20 03:30N 47°31' W 122°24'3 5.6
2018-Jan-20 03:00N 47°31' W 122°28'1 2.7
2018-Jan-20 02:30N 47°31' W 122°30'2 3.0
2018-Jan-20 02:01N 47°31' W 122°28'3 5.0
2018-Jan-20 01:30N 47°31' W 122°24'3 5.3
2018-Jan-20 01:01N 47°31' W 122°28'3 5.0
2018-Jan-20 00:30N 47°31' W 122°24'4 7.8
2018-Jan-20 00:00N 47°31' W 122°30'4 8.2
2018-Jan-19 23:30N 47°31' W 122°24'3 5.3
2018-Jan-19 23:00N 47°31' W 122°28'0 0.1
2018-Jan-19 22:30N 47°31' W 122°28'2 3.4
2018-Jan-19 22:01N 47°31' W 122°25'0 0.7
2018-Jan-19 21:30N 47°31' W 122°25'1 1.2
2018-Jan-19 21:00N 47°31' W 122°24'4 7.0
2018-Jan-19 20:30N 47°31' W 122°29'1 1.8
2018-Jan-19 20:00N 47°31' W 122°28'3 5.4
2018-Jan-19 19:30N 47°31' W 122°24'3 5.7
2018-Jan-19 19:00N 47°31' W 122°28'3 5.6
2018-Jan-19 18:30N 47°31' W 122°24'3 7.0
2018-Jan-19 18:01N 47°31' W 122°29'1 1.6
2018-Jan-19 17:31N 47°31' W 122°28'3 5.5
2018-Jan-19 17:00N 47°31' W 122°24'3 5.5
2018-Jan-19 16:30N 47°31' W 122°28'1 1.7
2018-Jan-19 16:00N 47°31' W 122°27'1 2.4
2018-Jan-19 15:31N 47°31' W 122°25'1 2.0
2018-Jan-19 15:01N 47°31' W 122°27'1 2.7
2018-Jan-19 14:31N 47°31' W 122°25'3 7.0
2018-Jan-19 14:00N 47°31' W 122°30'1 2.6
2018-Jan-19 13:30N 47°31' W 122°28'3 5.7
2018-Jan-19 13:00N 47°31' W 122°24'3 5.8
2018-Jan-19 12:31N 47°31' W 122°28'1 2.4
2018-Jan-19 12:00N 47°31' W 122°30'0 0.1
2018-Jan-19 11:31N 47°31' W 122°30'0 0.1
2018-Jan-19 11:00N 47°31' W 122°30'1 2.6
2018-Jan-19 10:30N 47°31' W 122°28'3 5.7
2018-Jan-19 10:00N 47°31' W 122°24'4 7.3
2018-Jan-19 09:30N 47°31' W 122°29'4 7.1
2018-Jan-19 09:00N 47°31' W 122°24'3 6.6
2018-Jan-19 08:31N 47°31' W 122°29'1 1.6
2018-Jan-19 08:00N 47°31' W 122°28'3 5.6
2018-Jan-19 07:30N 47°31' W 122°24'4 8.2
2018-Jan-19 07:01N 47°31' W 122°30'2 4.3
2018-Jan-19 06:30N 47°31' W 122°27'0 0.5
2018-Jan-19 06:00N 47°31' W 122°26'0 0.8
2018-Jan-19 05:30N 47°31' W 122°27'2 3.6
2018-Jan-19 05:01N 47°31' W 122°24'3 6.7
2018-Jan-19 04:30N 47°31' W 122°29'1 1.4
2018-Jan-19 04:00N 47°31' W 122°28'3 6.0
2018-Jan-19 03:30N 47°31' W 122°24'3 5.5
2018-Jan-19 03:00N 47°31' W 122°28'1 2.7
2018-Jan-19 02:31N 47°31' W 122°30'1 2.6
2018-Jan-19 02:01N 47°31' W 122°28'3 5.6
2018-Jan-19 01:30N 47°31' W 122°24'3 5.5
2018-Jan-19 01:00N 47°31' W 122°28'3 5.5
2018-Jan-19 00:30N 47°31' W 122°24'4 8.1
2018-Jan-19 00:01N 47°31' W 122°30'4 8.1
2018-Jan-18 23:31N 47°31' W 122°24'3 5.8
2018-Jan-18 23:00N 47°31' W 122°28'2 3.7
2018-Jan-18 22:31N 47°32' W 122°26'1 2.1
2018-Jan-18 22:00N 47°31' W 122°26'1 1.7
2018-Jan-18 21:30N 47°31' W 122°25'1 1.5
2018-Jan-18 21:00N 47°31' W 122°24'4 7.3
2018-Jan-18 20:30N 47°31' W 122°29'1 2.0
2018-Jan-18 20:00N 47°31' W 122°28'3 5.5
2018-Jan-18 19:30N 47°31' W 122°24'3 5.6
2018-Jan-18 19:00N 47°31' W 122°28'3 5.2
2018-Jan-18 18:30N 47°31' W 122°24'3 6.8
2018-Jan-18 18:00N 47°31' W 122°29'1 1.8
2018-Jan-18 17:30N 47°31' W 122°28'3 5.6
2018-Jan-18 17:00N 47°31' W 122°24'3 5.6
2018-Jan-18 16:31N 47°31' W 122°28'1 1.7
2018-Jan-18 16:00N 47°31' W 122°27'1 2.8
2018-Jan-18 15:31N 47°31' W 122°25'1 2.6
2018-Jan-18 15:00N 47°31' W 122°27'1 2.9
2018-Jan-18 14:30N 47°31' W 122°25'3 6.6
2018-Jan-18 14:00N 47°31' W 122°30'1 2.6
2018-Jan-18 13:30N 47°31' W 122°28'3 5.6
2018-Jan-18 13:00N 47°31' W 122°24'3 5.7
2018-Jan-18 12:31N 47°31' W 122°28'1 2.5
2018-Jan-18 12:00N 47°31' W 122°30'0 0.0
2018-Jan-18 11:30N 47°31' W 122°30'0 0.0
2018-Jan-18 11:00N 47°31' W 122°30'1 2.7
2018-Jan-18 10:30N 47°31' W 122°28'3 5.6
2018-Jan-18 10:00N 47°31' W 122°24'3 6.9
2018-Jan-18 09:30N 47°31' W 122°29'3 5.1
2018-Jan-18 09:00N 47°31' W 122°25'2 4.7
2018-Jan-18 08:30N 47°31' W 122°28'1 1.3
2018-Jan-18 08:00N 47°31' W 122°28'3 5.6
2018-Jan-18 07:30N 47°31' W 122°24'4 8.1
2018-Jan-18 07:01N 47°31' W 122°30'2 4.8
2018-Jan-18 06:31N 47°31' W 122°26'0 0.8
2018-Jan-18 06:00N 47°31' W 122°27'1 1.5
2018-Jan-18 05:31N 47°31' W 122°26'1 2.2
2018-Jan-18 05:01N 47°31' W 122°24'3 6.6
2018-Jan-18 04:30N 47°31' W 122°29'1 1.4
2018-Jan-18 04:00N 47°31' W 122°28'3 5.6
2018-Jan-18 03:30N 47°31' W 122°24'3 5.6
2018-Jan-18 03:00N 47°31' W 122°28'1 2.7
2018-Jan-18 02:30N 47°31' W 122°30'2 3.4
2018-Jan-18 02:00N 47°31' W 122°27'2 3.4
2018-Jan-18 01:31N 47°31' W 122°25'0 0.7
2018-Jan-18 01:00N 47°31' W 122°25'3 2.5
2018-Jan-18 00:00N 47°31' W 122°29'0 7.3
2018-Jan-17 23:57N 47°31' W 122°29'  
2018-Jan-12 15:00N 47°31' W 122°24'3 5.6
2018-Jan-12 14:30N 47°31' W 122°28'3 5.6
2018-Jan-12 14:00N 47°31' W 122°24'3 5.5
2018-Jan-12 13:30N 47°31' W 122°28'0 0.0
2018-Jan-12 13:00N 47°31' W 122°28'0 0.0
2018-Jan-12 12:30N 47°31' W 122°28'0 0.0
2018-Jan-12 12:00N 47°31' W 122°28'0 0.0
2018-Jan-12 11:30N 47°31' W 122°28'0 0.0
2018-Jan-12 11:00N 47°31' W 122°28'0 0.0
2018-Jan-12 10:30N 47°31' W 122°28'0 0.0
2018-Jan-12 10:00N 47°31' W 122°28'0 0.0
2018-Jan-12 09:30N 47°31' W 122°28'0 0.0
2018-Jan-12 09:00N 47°31' W 122°28'0 0.0
2018-Jan-12 08:30N 47°31' W 122°28'0 0.0
2018-Jan-12 08:00N 47°31' W 122°28'0 0.0
2018-Jan-12 07:30N 47°31' W 122°28'0 0.0
2018-Jan-12 07:00N 47°31' W 122°28'0 0.0
2018-Jan-12 06:30N 47°31' W 122°28'0 0.0
2018-Jan-12 06:00N 47°31' W 122°28'1 2.6
2018-Jan-12 05:30N 47°31' W 122°30'4 7.4
2018-Jan-12 05:01N 47°31' W 122°24'2 4.9
2018-Jan-12 04:30N 47°31' W 122°28'3 5.6
2018-Jan-12 04:00N 47°31' W 122°24'3 5.5
2018-Jan-12 03:31N 47°31' W 122°28'0 0.7
2018-Jan-12 03:01N 47°31' W 122°28'3 5.6
2018-Jan-12 02:30N 47°31' W 122°24'4 8.1
2018-Jan-12 02:00N 47°31' W 122°30'1 2.5
2018-Jan-12 01:30N 47°31' W 122°28'3 5.6
2018-Jan-12 01:00N 47°31' W 122°24'3 5.6
2018-Jan-12 00:30N 47°31' W 122°28'3 5.5
2018-Jan-12 00:00N 47°31' W 122°24'2 3.7
2018-Jan-11 23:30N 47°31' W 122°26'1 1.9
2018-Jan-11 23:00N 47°31' W 122°28'2 4.9
2018-Jan-11 22:30N 47°31' W 122°24'2 4.9
2018-Jan-11 22:01N 47°31' W 122°28'0 0.0
2018-Jan-11 21:31N 47°31' W 122°28'2 3.7
2018-Jan-11 21:01N 47°31' W 122°25'1 1.9
2018-Jan-11 20:30N 47°31' W 122°27'2 3.7
2018-Jan-11 20:00N 47°31' W 122°24'3 5.4
2018-Jan-11 19:29N 47°31' W 122°28'1 2.7
2018-Jan-11 19:00N 47°31' W 122°30'2 4.5
2018-Jan-11 18:30N 47°31' W 122°27'2 3.7
2018-Jan-11 18:00N 47°31' W 122°24'3 5.5
2018-Jan-11 17:31N 47°31' W 122°28'0 0.8
2018-Jan-11 17:00N 47°31' W 122°28'3 5.5
2018-Jan-11 16:30N 47°31' W 122°24'4 7.3
2018-Jan-11 16:01N 47°31' W 122°30'1 2.4
2018-Jan-11 15:30N 47°31' W 122°28'3 5.6
2018-Jan-11 15:01N 47°31' W 122°24'3 5.5
2018-Jan-11 14:30N 47°31' W 122°28'2 5.0
2018-Jan-11 14:00N 47°31' W 122°24'2 5.0
2018-Jan-11 13:30N 47°31' W 122°28'0 0.0
2018-Jan-11 13:00N 47°31' W 122°28'0 0.0
2018-Jan-11 12:30N 47°31' W 122°28'0 0.0
2018-Jan-11 12:00N 47°31' W 122°28'0 0.0
2018-Jan-11 11:30N 47°31' W 122°28'0 0.0
2018-Jan-11 11:00N 47°31' W 122°28'0 0.0
2018-Jan-11 10:30N 47°31' W 122°28'0 0.0
2018-Jan-11 10:00N 47°31' W 122°28'0 0.0
2018-Jan-11 09:30N 47°31' W 122°28'0 0.0
2018-Jan-11 09:00N 47°31' W 122°28'0 0.0
2018-Jan-11 08:30N 47°31' W 122°28'0 0.0
2018-Jan-11 08:00N 47°31' W 122°28'0 0.0
2018-Jan-11 07:30N 47°31' W 122°28'0 0.0
2018-Jan-11 07:00N 47°31' W 122°28'0 0.0
2018-Jan-11 06:30N 47°31' W 122°28'0 0.0
2018-Jan-11 06:00N 47°31' W 122°28'1 2.3
2018-Jan-11 05:30N 47°31' W 122°29'4 7.5
2018-Jan-11 05:00N 47°31' W 122°24'3 5.4
2018-Jan-11 04:30N 47°31' W 122°28'3 5.7
2018-Jan-11 04:00N 47°31' W 122°24'3 6.2
2018-Jan-11 03:30N 47°31' W 122°28'1 1.1
2018-Jan-11 02:59N 47°31' W 122°28'3 5.9
2018-Jan-11 02:31N 47°31' W 122°24'4 8.1
2018-Jan-11 02:00N 47°31' W 122°30'1 2.6
2018-Jan-11 01:30N 47°31' W 122°28'3 5.6
2018-Jan-11 01:00N 47°31' W 122°24'3 5.6
2018-Jan-11 00:30N 47°31' W 122°28'3 5.5
2018-Jan-11 00:00N 47°31' W 122°24'2 4.4
2018-Jan-10 23:31N 47°31' W 122°27'1 1.4
2018-Jan-10 23:00N 47°31' W 122°28'2 4.7
2018-Jan-10 22:30N 47°31' W 122°24'2 4.7
2018-Jan-10 22:00N 47°31' W 122°28'0 0.0
2018-Jan-10 21:30N 47°31' W 122°28'2 3.9
2018-Jan-10 21:00N 47°31' W 122°25'  
Track history (hours):
 
Tides and Currents Weather Stations Pressure Air Temp Water Temp Dewpoint Dewpoint Depression Visibility Wind Speed Wind Dir Waves Ship Positions

Cathlamet

Owner: WASHINGTON, STATE OF; Dept. of Transportation, OLYMPIA, WA. More information available from US FCC via Universal Licensing System and Coast Guard Vessel Documentation Center.

Last reported at 2018-Jan-20 21:00 UTC. Time now 2018-Jan-20 21:18 UTC.
Position N 47°31' W 122°30'.

Length 100 m; draft 4.7 m.

Type: Passenger vessel. MMSI: 366773070.

Date/timePositionNaut miles runAvg speedWind from/ knotsBaromVisibWave heightAir tempDewpointWater temp
2018-Jan-20 21:00N 47°31' W 122°30'2 3.4
2018-Jan-20 20:30N 47°31' W 122°27'2 3.5
2018-Jan-20 20:00N 47°31' W 122°25'2 3.2
2018-Jan-20 19:30N 47°31' W 122°27'2 3.2
2018-Jan-20 19:00N 47°31' W 122°25'1 1.1
2018-Jan-20 18:30N 47°31' W 122°25'1 2.4
2018-Jan-20 18:00N 47°31' W 122°27'2 4.3
2018-Jan-20 17:30N 47°31' W 122°24'3 5.6
2018-Jan-20 17:00N 47°31' W 122°28'1 2.7
2018-Jan-20 16:30N 47°31' W 122°30'2 3.6
2018-Jan-20 16:00N 47°31' W 122°27'2 3.0
2018-Jan-20 15:31N 47°31' W 122°25'3 6.3
2018-Jan-20 14:59N 47°31' W 122°30'1 2.8
2018-Jan-20 14:31N 47°31' W 122°28'0 0.0
2018-Jan-20 14:01N 47°31' W 122°28'0 0.0
2018-Jan-20 13:31N 47°31' W 122°28'0 0.0
2018-Jan-20 13:00N 47°31' W 122°28'0 0.0
2018-Jan-20 12:30N 47°31' W 122°28'0 0.0
2018-Jan-20 12:00N 47°31' W 122°28'0 0.0
2018-Jan-20 11:31N 47°31' W 122°28'0 0.0
2018-Jan-20 11:01N 47°31' W 122°28'0 0.0
2018-Jan-20 10:31N 47°31' W 122°28'0 0.0
2018-Jan-20 10:01N 47°31' W 122°28'0 0.0
2018-Jan-20 09:31N 47°31' W 122°28'0 0.0
2018-Jan-20 09:01N 47°31' W 122°28'0 0.0
2018-Jan-20 08:31N 47°31' W 122°28'0 0.0
2018-Jan-20 08:00N 47°31' W 122°28'0 0.0
2018-Jan-20 07:30N 47°31' W 122°28'0 0.0
2018-Jan-20 07:01N 47°31' W 122°28'0 0.0
2018-Jan-20 06:31N 47°31' W 122°28'0 0.0
2018-Jan-20 06:01N 47°31' W 122°28'1 2.6
2018-Jan-20 05:30N 47°31' W 122°26'1 2.5
2018-Jan-20 05:01N 47°31' W 122°24'3 6.4
2018-Jan-20 04:30N 47°31' W 122°29'1 1.5
2018-Jan-20 04:01N 47°31' W 122°28'3 5.8
2018-Jan-20 03:30N 47°31' W 122°24'3 5.6
2018-Jan-20 03:00N 47°31' W 122°28'1 2.7
2018-Jan-20 02:30N 47°31' W 122°30'2 3.0
2018-Jan-20 02:01N 47°31' W 122°28'3 5.0
2018-Jan-20 01:30N 47°31' W 122°24'3 5.3
2018-Jan-20 01:01N 47°31' W 122°28'3 5.0
2018-Jan-20 00:30N 47°31' W 122°24'4 7.8
2018-Jan-20 00:00N 47°31' W 122°30'4 8.2
2018-Jan-19 23:30N 47°31' W 122°24'3 5.3
2018-Jan-19 23:00N 47°31' W 122°28'0 0.1
2018-Jan-19 22:30N 47°31' W 122°28'2 3.4
2018-Jan-19 22:01N 47°31' W 122°25'0 0.7
2018-Jan-19 21:30N 47°31' W 122°25'1 1.2
2018-Jan-19 21:00N 47°31' W 122°24'4 7.0
2018-Jan-19 20:30N 47°31' W 122°29'1 1.8
2018-Jan-19 20:00N 47°31' W 122°28'3 5.4
2018-Jan-19 19:30N 47°31' W 122°24'3 5.7
2018-Jan-19 19:00N 47°31' W 122°28'3 5.6
2018-Jan-19 18:30N 47°31' W 122°24'3 7.0
2018-Jan-19 18:01N 47°31' W 122°29'1 1.6
2018-Jan-19 17:31N 47°31' W 122°28'3 5.5
2018-Jan-19 17:00N 47°31' W 122°24'3 5.5
2018-Jan-19 16:30N 47°31' W 122°28'1 1.7
2018-Jan-19 16:00N 47°31' W 122°27'1 2.4
2018-Jan-19 15:31N 47°31' W 122°25'1 2.0
2018-Jan-19 15:01N 47°31' W 122°27'1 2.7
2018-Jan-19 14:31N 47°31' W 122°25'3 7.0
2018-Jan-19 14:00N 47°31' W 122°30'1 2.6
2018-Jan-19 13:30N 47°31' W 122°28'3 5.7
2018-Jan-19 13:00N 47°31' W 122°24'3 5.8
2018-Jan-19 12:31N 47°31' W 122°28'1 2.4
2018-Jan-19 12:00N 47°31' W 122°30'0 0.1
2018-Jan-19 11:31N 47°31' W 122°30'0 0.1
2018-Jan-19 11:00N 47°31' W 122°30'1 2.6
2018-Jan-19 10:30N 47°31' W 122°28'3 5.7
2018-Jan-19 10:00N 47°31' W 122°24'4 7.3
2018-Jan-19 09:30N 47°31' W 122°29'4 7.1
2018-Jan-19 09:00N 47°31' W 122°24'3 6.6
2018-Jan-19 08:31N 47°31' W 122°29'1 1.6
2018-Jan-19 08:00N 47°31' W 122°28'3 5.6
2018-Jan-19 07:30N 47°31' W 122°24'4 8.2
2018-Jan-19 07:01N 47°31' W 122°30'2 4.3
2018-Jan-19 06:30N 47°31' W 122°27'0 0.5
2018-Jan-19 06:00N 47°31' W 122°26'0 0.8
2018-Jan-19 05:30N 47°31' W 122°27'2 3.6
2018-Jan-19 05:01N 47°31' W 122°24'3 6.7
2018-Jan-19 04:30N 47°31' W 122°29'1 1.4
2018-Jan-19 04:00N 47°31' W 122°28'3 6.0
2018-Jan-19 03:30N 47°31' W 122°24'3 5.5
2018-Jan-19 03:00N 47°31' W 122°28'1 2.7
2018-Jan-19 02:31N 47°31' W 122°30'1 2.6
2018-Jan-19 02:01N 47°31' W 122°28'3 5.6
2018-Jan-19 01:30N 47°31' W 122°24'3 5.5
2018-Jan-19 01:00N 47°31' W 122°28'3 5.5
2018-Jan-19 00:30N 47°31' W 122°24'4 8.1
2018-Jan-19 00:01N 47°31' W 122°30'4 8.1
2018-Jan-18 23:31N 47°31' W 122°24'3 5.8
2018-Jan-18 23:00N 47°31' W 122°28'2 3.7
2018-Jan-18 22:31N 47°32' W 122°26'1 2.1
2018-Jan-18 22:00N 47°31' W 122°26'1 1.7
2018-Jan-18 21:30N 47°31' W 122°25'1 1.5
2018-Jan-18 21:00N 47°31' W 122°24'4 7.3
2018-Jan-18 20:30N 47°31' W 122°29'1 2.0
2018-Jan-18 20:00N 47°31' W 122°28'3 5.5
2018-Jan-18 19:30N 47°31' W 122°24'3 5.6
2018-Jan-18 19:00N 47°31' W 122°28'3 5.2
2018-Jan-18 18:30N 47°31' W 122°24'3 6.8
2018-Jan-18 18:00N 47°31' W 122°29'1 1.8
2018-Jan-18 17:30N 47°31' W 122°28'3 5.6
2018-Jan-18 17:00N 47°31' W 122°24'3 5.6
2018-Jan-18 16:31N 47°31' W 122°28'1 1.7
2018-Jan-18 16:00N 47°31' W 122°27'1 2.8
2018-Jan-18 15:31N 47°31' W 122°25'1 2.6
2018-Jan-18 15:00N 47°31' W 122°27'1 2.9
2018-Jan-18 14:30N 47°31' W 122°25'3 6.6
2018-Jan-18 14:00N 47°31' W 122°30'1 2.6
2018-Jan-18 13:30N 47°31' W 122°28'3 5.6
2018-Jan-18 13:00N 47°31' W 122°24'3 5.7
2018-Jan-18 12:31N 47°31' W 122°28'1 2.5
2018-Jan-18 12:00N 47°31' W 122°30'0 0.0
2018-Jan-18 11:30N 47°31' W 122°30'0 0.0
2018-Jan-18 11:00N 47°31' W 122°30'1 2.7
2018-Jan-18 10:30N 47°31' W 122°28'3 5.6
2018-Jan-18 10:00N 47°31' W 122°24'3 6.9
2018-Jan-18 09:30N 47°31' W 122°29'3 5.1
2018-Jan-18 09:00N 47°31' W 122°25'2 4.7
2018-Jan-18 08:30N 47°31' W 122°28'1 1.3
2018-Jan-18 08:00N 47°31' W 122°28'3 5.6
2018-Jan-18 07:30N 47°31' W 122°24'4 8.1
2018-Jan-18 07:01N 47°31' W 122°30'2 4.8
2018-Jan-18 06:31N 47°31' W 122°26'0 0.8
2018-Jan-18 06:00N 47°31' W 122°27'1 1.5
2018-Jan-18 05:31N 47°31' W 122°26'1 2.2
2018-Jan-18 05:01N 47°31' W 122°24'3 6.6
2018-Jan-18 04:30N 47°31' W 122°29'1 1.4
2018-Jan-18 04:00N 47°31' W 122°28'3 5.6
2018-Jan-18 03:30N 47°31' W 122°24'3 5.6
2018-Jan-18 03:00N 47°31' W 122°28'1 2.7
2018-Jan-18 02:30N 47°31' W 122°30'2 3.4
2018-Jan-18 02:00N 47°31' W 122°27'2 3.4
2018-Jan-18 01:31N 47°31' W 122°25'0 0.7
2018-Jan-18 01:00N 47°31' W 122°25'3 2.5
2018-Jan-18 00:00N 47°31' W 122°29'0 7.3
2018-Jan-17 23:57N 47°31' W 122°29'  
2018-Jan-12 15:00N 47°31' W 122°24'3 5.6
2018-Jan-12 14:30N 47°31' W 122°28'3 5.6
2018-Jan-12 14:00N 47°31' W 122°24'3 5.5
2018-Jan-12 13:30N 47°31' W 122°28'0 0.0
2018-Jan-12 13:00N 47°31' W 122°28'0 0.0
2018-Jan-12 12:30N 47°31' W 122°28'0 0.0
2018-Jan-12 12:00N 47°31' W 122°28'0 0.0
2018-Jan-12 11:30N 47°31' W 122°28'0 0.0
2018-Jan-12 11:00N 47°31' W 122°28'0 0.0
2018-Jan-12 10:30N 47°31' W 122°28'0 0.0
2018-Jan-12 10:00N 47°31' W 122°28'0 0.0
2018-Jan-12 09:30N 47°31' W 122°28'0 0.0
2018-Jan-12 09:00N 47°31' W 122°28'0 0.0
2018-Jan-12 08:30N 47°31' W 122°28'0 0.0
2018-Jan-12 08:00N 47°31' W 122°28'0 0.0
2018-Jan-12 07:30N 47°31' W 122°28'0 0.0
2018-Jan-12 07:00N 47°31' W 122°28'0 0.0
2018-Jan-12 06:30N 47°31' W 122°28'0 0.0
2018-Jan-12 06:00N 47°31' W 122°28'1 2.6
2018-Jan-12 05:30N 47°31' W 122°30'4 7.4
2018-Jan-12 05:01N 47°31' W 122°24'2 4.9
2018-Jan-12 04:30N 47°31' W 122°28'3 5.6
2018-Jan-12 04:00N 47°31' W 122°24'3 5.5
2018-Jan-12 03:31N 47°31' W 122°28'0 0.7
2018-Jan-12 03:01N 47°31' W 122°28'3 5.6
2018-Jan-12 02:30N 47°31' W 122°24'4 8.1
2018-Jan-12 02:00N 47°31' W 122°30'1 2.5
2018-Jan-12 01:30N 47°31' W 122°28'3 5.6
2018-Jan-12 01:00N 47°31' W 122°24'3 5.6
2018-Jan-12 00:30N 47°31' W 122°28'3 5.5
2018-Jan-12 00:00N 47°31' W 122°24'2 3.7
2018-Jan-11 23:30N 47°31' W 122°26'1 1.9
2018-Jan-11 23:00N 47°31' W 122°28'2 4.9
2018-Jan-11 22:30N 47°31' W 122°24'2 4.9
2018-Jan-11 22:01N 47°31' W 122°28'0 0.0
2018-Jan-11 21:31N 47°31' W 122°28'2 3.7
2018-Jan-11 21:01N 47°31' W 122°25'1 1.9
2018-Jan-11 20:30N 47°31' W 122°27'2 3.7
2018-Jan-11 20:00N 47°31' W 122°24'3 5.4
2018-Jan-11 19:29N 47°31' W 122°28'1 2.7
2018-Jan-11 19:00N 47°31' W 122°30'2 4.5
2018-Jan-11 18:30N 47°31' W 122°27'2 3.7
2018-Jan-11 18:00N 47°31' W 122°24'3 5.5
2018-Jan-11 17:31N 47°31' W 122°28'0 0.8
2018-Jan-11 17:00N 47°31' W 122°28'3 5.5
2018-Jan-11 16:30N 47°31' W 122°24'4 7.3
2018-Jan-11 16:01N 47°31' W 122°30'1 2.4
2018-Jan-11 15:30N 47°31' W 122°28'3 5.6
2018-Jan-11 15:01N 47°31' W 122°24'3 5.5
2018-Jan-11 14:30N 47°31' W 122°28'2 5.0
2018-Jan-11 14:00N 47°31' W 122°24'2 5.0
2018-Jan-11 13:30N 47°31' W 122°28'0 0.0
2018-Jan-11 13:00N 47°31' W 122°28'0 0.0
2018-Jan-11 12:30N 47°31' W 122°28'0 0.0
2018-Jan-11 12:00N 47°31' W 122°28'0 0.0
2018-Jan-11 11:30N 47°31' W 122°28'0 0.0
2018-Jan-11 11:00N 47°31' W 122°28'0 0.0
2018-Jan-11 10:30N 47°31' W 122°28'0 0.0
2018-Jan-11 10:00N 47°31' W 122°28'0 0.0
2018-Jan-11 09:30N 47°31' W 122°28'0 0.0
2018-Jan-11 09:00N 47°31' W 122°28'0 0.0
2018-Jan-11 08:30N 47°31' W 122°28'0 0.0
2018-Jan-11 08:00N 47°31' W 122°28'0 0.0
2018-Jan-11 07:30N 47°31' W 122°28'0 0.0
2018-Jan-11 07:00N 47°31' W 122°28'0 0.0
2018-Jan-11 06:30N 47°31' W 122°28'0 0.0
2018-Jan-11 06:00N 47°31' W 122°28'1 2.3
2018-Jan-11 05:30N 47°31' W 122°29'4 7.5
2018-Jan-11 05:00N 47°31' W 122°24'3 5.4
2018-Jan-11 04:30N 47°31' W 122°28'3 5.7
2018-Jan-11 04:00N 47°31' W 122°24'3 6.2
2018-Jan-11 03:30N 47°31' W 122°28'1 1.1
2018-Jan-11 02:59N 47°31' W 122°28'3 5.9
2018-Jan-11 02:31N 47°31' W 122°24'4 8.1
2018-Jan-11 02:00N 47°31' W 122°30'1 2.6
2018-Jan-11 01:30N 47°31' W 122°28'3 5.6
2018-Jan-11 01:00N 47°31' W 122°24'3 5.6
2018-Jan-11 00:30N 47°31' W 122°28'3 5.5
2018-Jan-11 00:00N 47°31' W 122°24'2 4.4
2018-Jan-10 23:31N 47°31' W 122°27'1 1.4
2018-Jan-10 23:00N 47°31' W 122°28'2 4.7
2018-Jan-10 22:30N 47°31' W 122°24'2 4.7
2018-Jan-10 22:00N 47°31' W 122°28'0 0.0
2018-Jan-10 21:30N 47°31' W 122°28'2 3.9
2018-Jan-10 21:00N 47°31' W 122°25'  

Dump ship's entire track history